Imperial, CA

5:12 PM PDT on July 04, 2015 (GMT -0700)
Imperial County | Change Station
CLOSE
Current Station
Airport
Location: Imperial,
Elevation: -56 ft
Nearby Weather Stations

Elev -56 ft 32.83 °N, 115.58 °W | Updated 19 minutes ago

Clear
Clear
109 °F
Feels Like 107 °F
N
21
Wind Variable Wind from SE

Today
High -- | Low -- °F
--% Chance of Precip.
Yesterday
High -- | Low -- °F
Precip. -- in
5:39 AM 7:54 PM
Waning Gibbous, 89% visible
Pressure 29.62 in
Visibility 10.0 miles
Clouds Clear
Heat Index 107 °F
Dew Point 53 °F
Humidity 16%
Rainfall 0.00 in
Snow Depth Not available.
UV 4 out of 12
Pollen 5.40 out of 12
Ozone Good
PM2.5 Good
Flu Activity Not available.
METAR KIPL 042353Z AUTO 13018KT 10SM CLR 43/12 A2962 RMK AO2 SLP030 T04280117 10433 20394 56019

More Conditions Fewer Conditions

Pressure 29.62 in
Visibility 10.0 miles
Clouds Clear
Heat Index 107 °F
Dew Point 53 °F
Humidity 16%
Rainfall 0.00 in
Snow Depth Not available.
UV 4 out of 12
Pollen 5.40 out of 12
Ozone Good
PM2.5 Good
Flu Activity Not available.
METAR KIPL 042353Z AUTO 13018KT 10SM CLR 43/12 A2962 RMK AO2 SLP030 T04280117 10433 20394 56019

More Conditions Fewer Conditions

10-Day Weather Forecast

Almanac

Astronomy

Jul. 04, 2015 Rise Set
Actual Time 5:39 AM PDT 7:54 PM PDT
Civil Twilight 5:10 AM PDT 8:22 PM PDT
Nautical Twilight 4:35 AM PDT 8:57 PM PDT
Astronomical Twilight 3:57 AM PDT 9:35 PM PDT
Moon 10:00 PM PDT (7/4) 8:29 AM PDT (7/4)
Length of Visible Light 15h 12m
Length of Day
14h 15m
Tomorrow will be 0m 36s shorter.
Waning Gibbous, 89% of the Moon is Illuminated
Today
Waning Gibbous
Jul 8
Last Quarter
Jul 15
New
Jul 24
First Quarter
Jul 31
Full

Today's Extremes

State Highs State Lows

Community

WunderPhotos

Upload Photos

1,835,119 photos uploaded!

Nearby

Air Quality

  Air Quality AQ Index Pollutant
Yesterday Moderate
OZONE
Yesterday Moderate
PM10
Current Good
PM2.5
Current Good
OZONE
Saturday Moderate
OZONE
Saturday Moderate
PM10
Sunday Moderate
OZONE
Sunday Good
PM10
Monday Moderate
OZONE
Monday Good
PM10
Tuesday Moderate
OZONE
Tuesday Good
PM10
Wednesday Moderate
OZONE
Wednesday Good
PM10

Snow Depth

Station Depth Elevation
Virginia Lakes Ridge 0 in 9200 ft
Leavitt Lake 0 in 9400 ft
Leavitt Meadows 0 in 7200 ft
Blue Lakes 0 in 8000 ft
Echo Peak 0 in 7800 ft

Earthquake Activity

City Distance Mag. Time & Date
Brawley, California 9 miles 2.6 12:44 PM PDT
2015-07-02
Brawley, California 9 miles 2.6 12:40 PM PDT
2015-07-02
Brawley, California 10 miles 3.6 12:38 PM PDT
2015-07-02
Minimum magnitude displayed is 2.5.

Coastal Water Temperatures

Place Temperature
No Stations Reporting

Nearby Weather Stations